Time;durP1;ratioP1;P1;durP2;ratioP2;P2;SDS_P1;SDS_P2;PMS_P1;PMS_P2;Temp;Humidity;BMP_temperature;BMP_pressure;BME280_temperature;BME280_humidity;BME280_pressure;Samples;Min_cycle;Max_cycle;Signal;HPM_P1;HPM_P2
2023/05/30 00:01:46;;;;;;;12.45;3.47;;;11.10;99.90;;;;;;5027536;28;20431;-83
2023/05/30 00:04:11;;;;;;;16.38;4.07;;;11.10;99.90;;;;;;5028473;28;20833;-79
2023/05/30 00:06:37;;;;;;;14.40;4.13;;;11.00;99.90;;;;;;5023705;28;20764;-81
2023/05/30 00:09:03;;;;;;;14.88;3.65;;;11.00;99.90;;;;;;5037495;28;20430;-81
2023/05/30 00:11:29;;;;;;;15.52;3.63;;;11.00;99.90;;;;;;5007930;28;20525;-82
2023/05/30 00:13:58;;;;;;;10.40;3.53;;;11.10;99.90;;;;;;5027158;28;20466;-83
2023/05/30 00:16:24;;;;;;;11.95;4.40;;;11.00;99.90;;;;;;5023717;28;20430;-79
2023/05/30 00:18:52;;;;;;;10.67;3.50;;;10.90;99.90;;;;;;5027286;28;20499;-81
2023/05/30 00:21:18;;;;;;;12.43;3.13;;;10.90;99.90;;;;;;5025057;28;20502;-81
2023/05/30 00:23:45;;;;;;;10.85;3.00;;;11.00;99.90;;;;;;5027371;28;20434;-82
2023/05/30 00:26:11;;;;;;;11.18;2.72;;;11.00;99.90;;;;;;5023630;28;20524;-80
2023/05/30 00:28:38;;;;;;;13.70;3.55;;;10.90;99.90;;;;;;5031139;28;20415;-80
2023/05/30 00:31:04;;;;;;;11.98;3.85;;;11.00;99.90;;;;;;5028256;28;20442;-80
2023/05/30 00:33:30;;;;;;;10.50;3.20;;;11.00;99.90;;;;;;5041632;28;20425;-83
2023/05/30 00:35:55;;;;;;;15.00;4.10;;;11.10;99.90;;;;;;5030773;28;20427;-82
2023/05/30 00:38:21;;;;;;;15.33;4.13;;;10.90;99.90;;;;;;5032951;28;20817;-82
2023/05/30 00:40:47;;;;;;;9.87;3.20;;;10.90;99.90;;;;;;5024564;28;20447;-82
2023/05/30 00:43:12;;;;;;;10.73;3.13;;;10.90;99.90;;;;;;5031790;28;20455;-82
2023/05/30 00:45:38;;;;;;;11.57;3.47;;;10.90;99.90;;;;;;5027333;28;20472;-82
2023/05/30 00:48:04;;;;;;;13.83;3.80;;;10.90;99.90;;;;;;5022878;28;20441;-82
2023/05/30 00:50:31;;;;;;;11.77;3.70;;;10.80;99.90;;;;;;5029487;28;20494;-81
2023/05/30 00:52:58;;;;;;;11.85;3.42;;;10.80;99.90;;;;;;5034444;28;20852;-77
2023/05/30 00:55:26;;;;;;;9.85;3.58;;;10.90;99.90;;;;;;5026519;28;20494;-82
2023/05/30 00:57:52;;;;;;;16.98;4.00;;;10.80;99.90;;;;;;5026341;28;20434;-80
2023/05/30 01:00:19;;;;;;;11.23;3.60;;;10.70;99.90;;;;;;5024566;28;20437;-81
2023/05/30 01:02:46;;;;;;;15.47;4.93;;;10.70;99.90;;;;;;5024101;28;20461;-82
2023/05/30 01:05:14;;;;;;;11.80;4.13;;;10.80;99.90;;;;;;5010210;28;20482;-80
2023/05/30 01:07:44;;;;;;;10.25;3.08;;;10.70;99.90;;;;;;5010699;28;20454;-77
2023/05/30 01:10:13;;;;;;;12.65;3.67;;;10.60;99.90;;;;;;5029385;28;20478;-83
2023/05/30 01:12:59;;;;;;;11.25;4.03;;;10.60;99.90;;;;;;5082129;22;20930;-83
2023/05/30 01:15:36;;;;;;;7.43;2.78;;;10.80;99.90;;;;;;5041697;28;20434;-82
2023/05/30 01:18:19;;;;;;;17.45;4.20;;;10.70;99.90;;;;;;5048188;28;20425;-81
2023/05/30 01:20:50;;;;;;;8.90;2.72;;;10.80;99.90;;;;;;5043206;28;21146;-82
2023/05/30 01:23:16;;;;;;;14.73;3.30;;;10.70;99.90;;;;;;5043678;28;20436;-82
2023/05/30 01:26:06;;;;;;;9.07;3.10;;;10.60;99.90;;;;;;5048768;28;20441;-83
2023/05/30 01:28:37;;;;;;;11.63;2.75;;;10.70;99.90;;;;;;5045364;28;20413;-81
2023/05/30 01:31:04;;;;;;;11.60;4.00;;;10.60;99.90;;;;;;5045490;28;20431;-79
2023/05/30 01:33:31;;;;;;;11.98;3.00;;;10.70;99.90;;;;;;5046052;28;20922;-83
2023/05/30 01:35:57;;;;;;;7.75;3.50;;;10.70;99.90;;;;;;5049493;28;20417;-81
2023/05/30 01:38:22;;;;;;;8.97;2.80;;;10.80;99.90;;;;;;5051006;28;20412;-83
2023/05/30 01:40:56;;;;;;;11.13;3.45;;;10.70;99.90;;;;;;5048971;28;20437;-79
2023/05/30 01:43:46;;;;;;;11.67;3.70;;;10.80;99.90;;;;;;5047159;28;20767;-78
2023/05/30 01:46:32;;;;;;;9.93;3.78;;;10.80;99.90;;;;;;5054744;28;20421;-80
2023/05/30 01:49:18;;;;;;;12.90;3.17;;;10.80;99.90;;;;;;5055121;28;20420;-79
2023/05/30 01:51:56;;;;;;;11.73;2.97;;;10.90;99.90;;;;;;5044771;28;20433;-80
2023/05/30 01:54:23;;;;;;;10.02;3.42;;;10.90;99.90;;;;;;5050991;28;20819;-84
2023/05/30 01:56:54;;;;;;;12.75;3.50;;;10.80;99.90;;;;;;5033418;28;20858;-84
2023/05/30 01:59:20;;;;;;;11.55;3.47;;;10.90;99.90;;;;;;5043885;28;20817;-83
2023/05/30 02:01:47;;;;;;;9.38;3.50;;;11.00;99.90;;;;;;5030793;28;20460;-83
2023/05/30 02:04:13;;;;;;;11.13;3.30;;;10.90;99.90;;;;;;5047711;28;20859;-78
2023/05/30 02:06:38;;;;;;;8.35;3.10;;;10.90;99.90;;;;;;5048043;28;20464;-83
2023/05/30 02:09:04;;;;;;;10.87;3.03;;;10.80;99.90;;;;;;5041815;28;20459;-78
2023/05/30 02:11:30;;;;;;;10.50;3.27;;;10.80;99.90;;;;;;5046495;28;20543;-84
2023/05/30 02:13:57;;;;;;;11.77;3.40;;;10.90;99.90;;;;;;5047390;28;20414;-80
2023/05/30 02:16:24;;;;;;;13.63;3.25;;;11.00;99.90;;;;;;5044133;28;20934;-82
2023/05/30 02:18:51;;;;;;;10.65;3.75;;;10.90;99.90;;;;;;5047723;28;20611;-81
2023/05/30 02:21:16;;;;;;;11.02;4.22;;;10.80;99.90;;;;;;5046364;28;20417;-80
2023/05/30 02:23:42;;;;;;;10.32;3.58;;;10.90;99.90;;;;;;5048547;28;20423;-83
2023/05/30 02:26:08;;;;;;;12.07;4.50;;;10.80;99.90;;;;;;5043162;28;20480;-76
2023/05/30 02:28:33;;;;;;;13.03;3.20;;;10.80;99.90;;;;;;5040730;28;20494;-84
2023/05/30 02:31:01;;;;;;;11.23;3.30;;;10.90;99.90;;;;;;5047399;28;20498;-82
2023/05/30 02:33:27;;;;;;;15.13;4.13;;;10.90;99.90;;;;;;5031867;28;20450;-83
2023/05/30 02:35:52;;;;;;;14.60;4.13;;;11.00;99.90;;;;;;5047512;28;20430;-82
2023/05/30 02:38:18;;;;;;;15.60;5.40;;;10.90;99.90;;;;;;5049559;28;20505;-83
2023/05/30 02:40:44;;;;;;;11.60;3.80;;;11.00;99.90;;;;;;5047611;28;20426;-83
2023/05/30 02:43:09;;;;;;;11.77;4.43;;;11.10;99.90;;;;;;5047229;28;20425;-82
2023/05/30 02:45:35;;;;;;;11.43;3.53;;;11.00;99.90;;;;;;5049514;28;20448;-80
2023/05/30 02:48:00;;;;;;;10.13;3.30;;;11.00;99.90;;;;;;5038879;28;20472;-84
2023/05/30 02:50:26;;;;;;;17.17;4.40;;;11.00;99.90;;;;;;5041598;28;20439;-83
2023/05/30 02:52:52;;;;;;;12.52;3.65;;;11.00;99.90;;;;;;5040859;28;20465;-81
2023/05/30 02:55:17;;;;;;;12.95;4.15;;;10.90;99.90;;;;;;5045646;28;20429;-80
2023/05/30 02:57:43;;;;;;;15.50;5.53;;;10.90;99.90;;;;;;5042125;28;20433;-81
2023/05/30 03:00:13;;;;;;;13.53;3.90;;;11.00;99.90;;;;;;5046496;28;21065;-82
2023/05/30 03:02:39;;;;;;;13.67;4.23;;;11.00;99.90;;;;;;5046419;28;20937;-85
2023/05/30 03:05:05;;;;;;;12.38;4.20;;;11.00;99.90;;;;;;5028643;28;20508;-82
2023/05/30 03:07:32;;;;;;;13.73;3.58;;;10.90;99.90;;;;;;5046980;28;20512;-82
2023/05/30 03:09:58;;;;;;;17.13;4.88;;;10.90;99.90;;;;;;5046692;28;20848;-76
2023/05/30 03:12:23;;;;;;;18.50;4.70;;;10.90;99.90;;;;;;5044221;28;20460;-83
2023/05/30 03:14:49;;;;;;;17.02;4.28;;;10.90;99.90;;;;;;5046723;28;20783;-81
2023/05/30 03:17:15;;;;;;;17.33;4.85;;;11.00;99.90;;;;;;5035684;28;20513;-82
2023/05/30 03:19:41;;;;;;;14.73;3.55;;;11.00;99.90;;;;;;5046481;28;20496;-82
2023/05/30 03:22:07;;;;;;;15.93;4.22;;;10.90;99.90;;;;;;5046606;28;20413;-80
2023/05/30 03:24:33;;;;;;;32.35;4.85;;;11.00;99.90;;;;;;5046832;28;20421;-82
2023/05/30 03:27:00;;;;;;;13.48;3.67;;;11.00;99.90;;;;;;5042946;28;20806;-81
2023/05/30 03:29:27;;;;;;;16.73;5.75;;;11.10;99.90;;;;;;5036284;28;20429;-81
2023/05/30 03:31:53;;;;;;;18.60;4.30;;;11.10;99.90;;;;;;5046616;28;20511;-84
2023/05/30 03:34:19;;;;;;;11.43;4.40;;;11.10;99.90;;;;;;5048172;28;20983;-81
2023/05/30 03:36:45;;;;;;;14.13;5.30;;;11.20;99.90;;;;;;5046677;28;20421;-81
2023/05/30 03:39:12;;;;;;;12.50;4.47;;;11.10;99.90;;;;;;5049939;28;20401;-76
2023/05/30 03:41:39;;;;;;;13.65;3.50;;;11.10;99.90;;;;;;5047244;28;20429;-80
2023/05/30 03:44:05;;;;;;;13.63;3.65;;;11.00;99.90;;;;;;5042916;28;20448;-82
2023/05/30 03:46:31;;;;;;;16.05;5.38;;;11.20;99.90;;;;;;5027921;28;20994;-80
2023/05/30 03:48:58;;;;;;;12.38;3.63;;;11.20;99.90;;;;;;5040992;28;20923;-84
2023/05/30 03:51:24;;;;;;;20.52;5.63;;;11.10;99.90;;;;;;5040344;28;20520;-83
2023/05/30 03:53:50;;;;;;;14.17;5.40;;;11.00;99.90;;;;;;5045623;28;20516;-84
2023/05/30 03:56:16;;;;;;;16.38;4.28;;;11.10;99.90;;;;;;5047247;28;20429;-80
2023/05/30 03:58:41;;;;;;;13.35;4.10;;;11.30;99.90;;;;;;5045674;28;20423;-84
2023/05/30 04:01:07;;;;;;;13.93;3.78;;;11.10;99.90;;;;;;5040721;28;20981;-79
2023/05/30 04:03:35;;;;;;;13.85;4.28;;;11.20;99.90;;;;;;5043416;28;20525;-83
2023/05/30 04:06:00;;;;;;;18.13;5.30;;;11.20;99.90;;;;;;5044219;28;20971;-81
2023/05/30 04:08:26;;;;;;;13.57;4.13;;;11.20;99.90;;;;;;5041858;28;20477;-80
2023/05/30 04:10:52;;;;;;;12.67;4.23;;;11.20;99.90;;;;;;5042496;28;20810;-79
2023/05/30 04:13:18;;;;;;;12.80;4.03;;;11.10;99.90;;;;;;5043401;28;20424;-82
2023/05/30 04:15:44;;;;;;;16.02;3.95;;;11.10;99.90;;;;;;5039697;28;20772;-82
2023/05/30 04:18:10;;;;;;;11.07;3.30;;;11.00;99.90;;;;;;5042375;28;20453;-83
2023/05/30 04:20:35;;;;;;;13.95;4.18;;;11.00;99.90;;;;;;5044050;28;20507;-82
2023/05/30 04:23:01;;;;;;;13.93;3.87;;;11.10;99.90;;;;;;5042451;28;20887;-76
2023/05/30 04:25:27;;;;;;;14.03;3.90;;;11.10;99.90;;;;;;5041751;28;20464;-82
2023/05/30 04:27:54;;;;;;;13.63;4.40;;;11.20;99.90;;;;;;5032774;28;20891;-84
2023/05/30 04:30:20;;;;;;;14.95;3.63;;;11.20;99.90;;;;;;5044636;28;20981;-80
2023/05/30 04:32:46;;;;;;;14.23;4.93;;;11.20;99.90;;;;;;5044247;28;20420;-77
2023/05/30 04:35:15;;;;;;;13.55;4.95;;;11.20;99.90;;;;;;5047592;28;20444;-83
2023/05/30 04:37:44;;;;;;;13.40;4.77;;;11.40;99.90;;;;;;5044049;28;20508;-78
2023/05/30 04:40:12;;;;;;;16.10;4.40;;;11.40;99.90;;;;;;5052187;28;20421;-81
2023/05/30 04:42:42;;;;;;;11.75;3.67;;;11.40;99.90;;;;;;5050502;28;20416;-84
2023/05/30 04:45:09;;;;;;;15.20;4.40;;;11.50;99.90;;;;;;5046911;28;20433;-82
2023/05/30 04:47:36;;;;;;;14.10;4.57;;;11.30;99.90;;;;;;5047359;28;20981;-80
2023/05/30 04:50:02;;;;;;;12.27;4.03;;;11.40;99.90;;;;;;5048492;28;20475;-83
2023/05/30 04:52:28;;;;;;;16.75;5.05;;;11.50;99.90;;;;;;5049215;28;20437;-82
2023/05/30 04:54:55;;;;;;;15.25;4.18;;;11.40;99.90;;;;;;5047739;28;20445;-83
2023/05/30 04:57:21;;;;;;;18.58;4.30;;;11.40;99.90;;;;;;5047631;28;20421;-82
2023/05/30 04:59:47;;;;;;;12.63;4.03;;;11.40;99.90;;;;;;5044912;28;20969;-80
2023/05/30 05:02:13;;;;;;;13.48;4.75;;;11.40;99.90;;;;;;5043977;28;20765;-86
2023/05/30 05:04:39;;;;;;;11.77;3.50;;;11.40;99.90;;;;;;5044577;28;20421;-78
2023/05/30 05:07:05;;;;;;;15.60;4.15;;;11.40;99.90;;;;;;5048833;28;21228;-84
2023/05/30 05:09:31;;;;;;;11.20;3.97;;;11.50;99.90;;;;;;5045800;28;20438;-83
2023/05/30 05:11:57;;;;;;;13.25;4.05;;;11.50;99.90;;;;;;5045742;28;20843;-84
2023/05/30 05:14:23;;;;;;;16.17;4.57;;;11.50;99.90;;;;;;5043182;28;20452;-83
2023/05/30 05:16:49;;;;;;;14.07;4.70;;;11.50;99.90;;;;;;5044596;28;20421;-82
2023/05/30 05:19:15;;;;;;;15.00;3.90;;;11.50;99.90;;;;;;5030429;28;20448;-84
2023/05/30 05:21:41;;;;;;;16.30;3.67;;;11.40;99.90;;;;;;5048324;28;20832;-81
2023/05/30 05:24:10;;;;;;;12.75;4.22;;;11.60;99.90;;;;;;5046351;28;20433;-81
2023/05/30 05:26:36;;;;;;;9.82;3.17;;;11.60;99.90;;;;;;5045898;28;20877;-83
2023/05/30 05:29:01;;;;;;;12.30;3.83;;;11.60;99.90;;;;;;5038430;28;20518;-81
2023/05/30 05:31:27;;;;;;;15.70;3.63;;;11.60;99.90;;;;;;5042895;28;20465;-81
2023/05/30 05:33:53;;;;;;;14.10;4.63;;;11.60;99.90;;;;;;5038857;28;20446;-83
2023/05/30 05:36:20;;;;;;;16.67;4.22;;;11.70;99.90;;;;;;5045040;28;20429;-81
2023/05/30 05:38:46;;;;;;;11.13;4.03;;;11.70;99.90;;;;;;5047798;28;20421;-78
2023/05/30 05:41:12;;;;;;;7.28;2.80;;;11.60;99.90;;;;;;5035006;28;20435;-82
2023/05/30 05:43:38;;;;;;;10.50;3.22;;;11.60;99.90;;;;;;5038940;28;20477;-83
2023/05/30 05:46:03;;;;;;;9.60;4.15;;;11.50;99.90;;;;;;5045591;28;20430;-79
2023/05/30 05:48:29;;;;;;;15.07;4.00;;;11.40;99.90;;;;;;5044110;28;20429;-81
2023/05/30 05:50:55;;;;;;;9.33;2.73;;;11.60;99.90;;;;;;5040240;28;20479;-82
2023/05/30 05:53:21;;;;;;;8.60;2.73;;;11.60;99.90;;;;;;5047331;28;20959;-82
2023/05/30 05:55:46;;;;;;;12.40;3.60;;;11.60;99.90;;;;;;5046332;28;20512;-82
2023/05/30 05:58:12;;;;;;;7.00;2.70;;;11.60;99.90;;;;;;5045695;28;20429;-80
2023/05/30 06:00:38;;;;;;;11.88;3.22;;;11.70;99.90;;;;;;5039579;28;20415;-82
2023/05/30 06:03:04;;;;;;;10.00;2.65;;;11.60;99.90;;;;;;5044096;28;20514;-81
2023/05/30 06:05:30;;;;;;;9.88;2.58;;;11.50;99.90;;;;;;5046647;28;20903;-82
2023/05/30 06:07:57;;;;;;;10.70;2.60;;;11.60;99.90;;;;;;5045736;28;20423;-81
2023/05/30 06:10:24;;;;;;;6.55;2.78;;;11.70;99.90;;;;;;5047069;28;20432;-81
2023/05/30 06:12:50;;;;;;;10.75;2.72;;;11.60;99.90;;;;;;5044291;28;20441;-80
2023/05/30 06:15:16;;;;;;;8.45;2.92;;;11.80;99.90;;;;;;5047021;28;20425;-81
2023/05/30 06:17:43;;;;;;;7.38;2.78;;;11.70;99.90;;;;;;5044461;28;20445;-81
2023/05/30 06:20:09;;;;;;;9.88;3.10;;;11.80;99.90;;;;;;5044315;28;20421;-80
2023/05/30 06:22:35;;;;;;;11.05;3.05;;;11.70;99.90;;;;;;5046740;28;20432;-81
2023/05/30 06:25:01;;;;;;;6.57;2.25;;;11.60;99.90;;;;;;5046577;28;20429;-83
2023/05/30 06:27:26;;;;;;;12.90;3.00;;;11.70;99.90;;;;;;5047256;28;20799;-80
2023/05/30 06:29:52;;;;;;;10.57;2.90;;;11.50;99.90;;;;;;5047456;28;20421;-81
2023/05/30 06:32:18;;;;;;;7.85;2.67;;;11.80;99.90;;;;;;5045727;28;20483;-82
2023/05/30 06:34:45;;;;;;;7.03;2.67;;;11.60;99.90;;;;;;5046235;28;20421;-77
2023/05/30 06:37:12;;;;;;;7.75;2.55;;;11.50;99.90;;;;;;5046348;28;20454;-75
2023/05/30 06:39:38;;;;;;;7.30;2.50;;;11.70;99.90;;;;;;5045470;28;20559;-81
2023/05/30 06:42:04;;;;;;;8.05;1.98;;;11.70;99.90;;;;;;5047622;28;20413;-79
2023/05/30 06:44:30;;;;;;;7.22;2.45;;;11.70;99.90;;;;;;5034973;28;20426;-88
2023/05/30 06:46:56;;;;;;;6.67;2.20;;;11.60;99.90;;;;;;5050226;28;20444;-83
2023/05/30 06:49:22;;;;;;;8.25;2.55;;;11.70;99.90;;;;;;5050259;28;20452;-85
2023/05/30 06:51:48;;;;;;;8.45;2.55;;;11.90;99.90;;;;;;5048079;28;20512;-79
2023/05/30 06:54:13;;;;;;;7.93;2.17;;;11.50;99.90;;;;;;5047861;28;20413;-85
2023/05/30 06:56:39;;;;;;;9.93;3.07;;;11.70;99.90;;;;;;5050346;28;20413;-87
2023/05/30 06:59:05;;;;;;;8.83;2.53;;;11.70;99.90;;;;;;5050961;28;20413;-82
2023/05/30 07:01:31;;;;;;;6.90;2.57;;;11.80;99.90;;;;;;5046480;28;20505;-86
2023/05/30 07:03:56;;;;;;;6.40;2.13;;;11.90;99.90;;;;;;5046263;28;20488;-83
2023/05/30 07:06:24;;;;;;;8.05;2.05;;;11.90;99.90;;;;;;5042158;28;20912;-84
2023/05/30 07:08:49;;;;;;;7.35;2.15;;;11.70;99.90;;;;;;5045489;28;20512;-74
2023/05/30 07:11:15;;;;;;;8.23;2.60;;;11.80;99.90;;;;;;5049179;28;20563;-84
2023/05/30 07:13:41;;;;;;;8.17;2.47;;;11.70;99.90;;;;;;5042192;28;20441;-87
2023/05/30 07:16:06;;;;;;;8.03;2.37;;;11.90;99.90;;;;;;5043858;28;20425;-78
2023/05/30 07:18:32;;;;;;;7.88;2.20;;;11.90;99.90;;;;;;5047303;28;21051;-84
2023/05/30 07:20:58;;;;;;;6.97;1.88;;;11.90;99.90;;;;;;5045852;28;20460;-81
2023/05/30 07:23:23;;;;;;;6.78;2.17;;;12.00;99.90;;;;;;5041054;28;20481;-82
2023/05/30 07:25:49;;;;;;;3.90;1.73;;;12.20;99.90;;;;;;5051304;28;20875;-75
2023/05/30 07:28:15;;;;;;;4.17;1.63;;;12.20;99.90;;;;;;5053912;28;20421;-82
2023/05/30 07:30:40;;;;;;;5.90;1.83;;;12.20;99.90;;;;;;5053014;28;20432;-80
2023/05/30 07:33:06;;;;;;;6.10;1.80;;;12.10;99.90;;;;;;5046032;28;20429;-85
2023/05/30 07:35:32;;;;;;;4.10;1.40;;;12.00;99.90;;;;;;5053392;28;20428;-83
2023/05/30 07:37:57;;;;;;;4.93;1.42;;;12.20;99.90;;;;;;5052772;28;20767;-83
2023/05/30 07:40:23;;;;;;;4.68;1.50;;;11.90;99.90;;;;;;5046124;28;20425;-84
2023/05/30 07:42:49;;;;;;;5.63;1.53;;;12.00;99.90;;;;;;5048690;28;20417;-81
2023/05/30 07:45:15;;;;;;;4.73;1.57;;;12.10;99.90;;;;;;5046529;28;20413;-78
2023/05/30 07:47:40;;;;;;;4.22;1.35;;;12.00;99.90;;;;;;5046300;28;20487;-83
2023/05/30 07:50:07;;;;;;;3.97;1.60;;;12.00;99.90;;;;;;5042693;28;20520;-78
2023/05/30 07:52:33;;;;;;;4.80;1.93;;;12.30;99.90;;;;;;5044729;28;20454;-81
2023/05/30 07:54:59;;;;;;;6.15;1.95;;;12.50;99.90;;;;;;5042335;28;20424;-77
2023/05/30 07:57:25;;;;;;;4.00;1.48;;;12.40;99.90;;;;;;5045219;28;20429;-83
2023/05/30 07:59:50;;;;;;;5.63;2.13;;;12.40;99.90;;;;;;5043445;28;20421;-81
2023/05/30 08:02:16;;;;;;;6.60;2.47;;;12.40;99.90;;;;;;5044360;28;20461;-81
2023/05/30 08:04:42;;;;;;;5.50;2.00;;;12.20;99.90;;;;;;5044706;28;20427;-73
2023/05/30 08:07:08;;;;;;;2.90;1.70;;;12.10;99.90;;;;;;5044758;28;20441;-78
2023/05/30 08:09:36;;;;;;;5.60;1.57;;;12.20;99.90;;;;;;5035526;28;20427;-83
2023/05/30 08:12:02;;;;;;;4.53;1.60;;;12.20;99.90;;;;;;5036867;28;20437;-82
2023/05/30 08:14:28;;;;;;;3.92;1.75;;;12.30;99.90;;;;;;5044599;28;20495;-77
2023/05/30 08:16:55;;;;;;;4.73;1.50;;;12.20;99.90;;;;;;5045301;28;20421;-79
2023/05/30 08:19:21;;;;;;;4.55;1.70;;;12.50;99.90;;;;;;5043897;28;20413;-81
2023/05/30 08:21:47;;;;;;;4.15;1.55;;;12.80;99.90;;;;;;5038325;28;20500;-82
2023/05/30 08:24:15;;;;;;;4.40;1.60;;;12.90;99.90;;;;;;5039953;28;20425;-76
2023/05/30 08:26:41;;;;;;;4.60;1.73;;;12.80;99.90;;;;;;5041937;28;20413;-79
2023/05/30 08:29:07;;;;;;;4.72;1.73;;;13.00;99.90;;;;;;5044463;28;20432;-81
2023/05/30 08:31:32;;;;;;;6.38;1.70;;;13.10;99.90;;;;;;5042979;28;20435;-80
2023/05/30 08:34:02;;;;;;;6.93;1.92;;;12.90;99.90;;;;;;5033553;28;20441;-79
2023/05/30 08:36:28;;;;;;;4.40;1.80;;;13.10;99.90;;;;;;5041499;28;20475;-81
2023/05/30 08:38:55;;;;;;;4.93;2.10;;;12.80;99.90;;;;;;5045190;28;20724;-82
2023/05/30 08:41:21;;;;;;;3.70;1.92;;;12.90;99.90;;;;;;5022659;28;20509;-82
2023/05/30 08:43:48;;;;;;;4.77;2.00;;;12.80;99.90;;;;;;5043752;28;20832;-76
2023/05/30 08:46:16;;;;;;;4.25;1.35;;;12.90;99.90;;;;;;5045730;28;20481;-79
2023/05/30 08:48:42;;;;;;;4.60;1.65;;;12.60;99.90;;;;;;5041669;28;20421;-81
2023/05/30 08:51:12;;;;;;;1.98;1.35;;;12.60;99.90;;;;;;5042722;28;20437;-77
2023/05/30 08:53:45;;;;;;;2.42;1.38;;;12.60;99.90;;;;;;5044189;28;20421;-83
2023/05/30 08:56:15;;;;;;;4.78;1.80;;;12.60;99.90;;;;;;5045272;28;20483;-77
2023/05/30 08:58:47;;;;;;;3.50;1.30;;;12.50;99.90;;;;;;5039207;28;20879;-81
2023/05/30 09:01:13;;;;;;;5.97;1.13;;;12.50;99.90;;;;;;5026721;28;20414;-80
2023/05/30 09:03:45;;;;;;;2.42;1.15;;;12.40;99.90;;;;;;5032810;28;20499;-79
2023/05/30 09:06:13;;;;;;;1.98;0.90;;;12.60;99.90;;;;;;5043904;28;20432;-80
2023/05/30 09:08:41;;;;;;;3.77;1.40;;;13.00;99.90;;;;;;5045618;28;20906;-81
2023/05/30 09:11:07;;;;;;;2.67;1.42;;;13.20;99.90;;;;;;5027701;28;20459;-79
2023/05/30 09:13:34;;;;;;;1.83;1.08;;;12.90;99.90;;;;;;5043203;28;20475;-77
2023/05/30 09:16:00;;;;;;;2.50;1.50;;;13.20;99.90;;;;;;5045848;28;20405;-80
2023/05/30 09:18:34;;;;;;;3.67;0.90;;;13.80;99.90;;;;;;5045455;28;20413;-78
2023/05/30 09:21:01;;;;;;;1.05;0.60;;;13.70;99.90;;;;;;5045173;28;20466;-81
2023/05/30 09:23:27;;;;;;;1.80;0.43;;;13.80;99.90;;;;;;5029825;28;20497;-81
2023/05/30 09:25:52;;;;;;;2.45;0.98;;;13.60;99.90;;;;;;5031390;28;20891;-80
2023/05/30 09:28:26;;;;;;;1.58;0.68;;;13.50;99.90;;;;;;5048060;28;20775;-79
2023/05/30 09:31:03;;;;;;;1.00;0.60;;;13.90;99.90;;;;;;5045140;28;20599;-80
2023/05/30 09:33:51;;;;;;;2.22;1.38;;;13.90;99.90;;;;;;5037847;28;20459;-76
2023/05/30 09:36:20;;;;;;;1.33;0.65;;;13.80;99.90;;;;;;5045508;28;20483;-78
2023/05/30 09:38:56;;;;;;;0.68;0.40;;;14.00;99.90;;;;;;5039915;28;20469;-82
2023/05/30 09:41:26;;;;;;;1.48;0.50;;;14.00;99.90;;;;;;5027370;28;20510;-80
2023/05/30 09:43:53;;;;;;;2.35;0.50;;;14.00;99.90;;;;;;5047287;28;21039;-81
2023/05/30 09:46:24;;;;;;;2.90;0.90;;;14.00;99.90;;;;;;5049133;28;20483;-77
2023/05/30 09:48:50;;;;;;;1.30;0.70;;;13.70;99.90;;;;;;5048137;28;20409;-75
2023/05/30 09:51:16;;;;;;;0.85;0.75;;;13.70;99.90;;;;;;5047484;28;20516;-80
2023/05/30 09:54:09;;;;;;;3.00;0.70;;;13.50;99.90;;;;;;5039406;28;20413;-77
2023/05/30 09:56:42;;;;;;;1.40;0.50;;;13.60;99.90;;;;;;5048013;28;20405;-81
2023/05/30 09:59:08;;;;;;;2.50;0.93;;;13.30;99.90;;;;;;5046754;28;20416;-77
2023/05/30 10:01:37;;;;;;;1.70;1.00;;;13.20;99.90;;;;;;5034734;28;20758;-81
2023/05/30 10:04:11;;;;;;;1.63;1.03;;;13.40;99.90;;;;;;5047652;28;20409;-79
2023/05/30 10:06:42;;;;;;;2.20;0.90;;;13.50;99.90;;;;;;5048825;28;21335;-80
2023/05/30 10:09:09;;;;;;;2.25;0.63;;;13.30;99.90;;;;;;5047737;28;20424;-82
2023/05/30 10:11:39;;;;;;;1.70;0.73;;;13.20;99.90;;;;;;5032628;28;20447;-82
2023/05/30 10:14:07;;;;;;;1.10;0.60;;;13.00;99.90;;;;;;5027809;28;20442;-79
2023/05/30 10:16:35;;;;;;;0.90;0.60;;;13.00;99.90;;;;;;5028949;28;20506;-80
2023/05/30 10:19:18;;;;;;;3.40;0.60;;;13.30;99.90;;;;;;5029431;28;20407;-81
2023/05/30 10:21:45;;;;;;;1.70;0.60;;;13.30;99.90;;;;;;5013357;28;20468;-83
2023/05/30 10:24:14;;;;;;;1.60;0.68;;;13.40;99.90;;;;;;5044576;28;20415;-81
2023/05/30 10:26:50;;;;;;;2.00;0.93;;;13.30;99.90;;;;;;5052658;28;20397;-81
2023/05/30 10:29:21;;;;;;;2.13;1.00;;;13.20;99.90;;;;;;5057319;28;20511;-81
2023/05/30 10:31:47;;;;;;;2.67;1.30;;;13.20;99.90;;;;;;5049260;28;21261;-82
2023/05/30 10:34:16;;;;;;;3.55;0.93;;;13.20;99.90;;;;;;5046171;28;20415;-78
2023/05/30 10:36:44;;;;;;;2.25;0.90;;;13.10;99.90;;;;;;5028060;28;20419;-81
2023/05/30 10:39:46;;;;;;;2.50;0.82;;;13.30;99.90;;;;;;5031239;28;20436;-82
2023/05/30 10:42:21;;;;;;;3.23;0.93;;;13.50;99.90;;;;;;5030149;28;20480;-75
2023/05/30 10:45:12;;;;;;;2.38;0.70;;;13.40;99.90;;;;;;5048650;28;20447;-82
2023/05/30 10:48:01;;;;;;;3.63;1.17;;;13.40;99.90;;;;;;5045823;28;20504;-82
2023/05/30 10:50:35;;;;;;;2.58;0.40;;;13.80;99.90;;;;;;5047831;28;20827;-76
2023/05/30 10:53:00;;;;;;;1.63;0.60;;;13.90;99.90;;;;;;5036520;28;20620;-80
2023/05/30 10:55:29;;;;;;;1.20;0.50;;;14.00;99.90;;;;;;5041905;28;20570;-82
2023/05/30 10:57:55;;;;;;;1.83;0.40;;;14.10;99.90;;;;;;5047737;28;20418;-80
2023/05/30 11:00:23;;;;;;;2.00;0.68;;;14.40;99.90;;;;;;5046748;28;20776;-74
2023/05/30 11:02:55;;;;;;;1.50;0.60;;;14.10;99.90;;;;;;5043709;28;20429;-80
2023/05/30 11:05:34;;;;;;;0.93;0.60;;;14.00;99.90;;;;;;5047222;28;20814;-84
2023/05/30 11:08:01;;;;;;;2.40;0.50;;;14.30;99.90;;;;;;5039966;28;20481;-83
2023/05/30 11:10:28;;;;;;;2.75;0.60;;;14.00;99.90;;;;;;5039399;28;20513;-81
2023/05/30 11:13:11;;;;;;;3.13;0.75;;;13.90;99.90;;;;;;5046242;28;20900;-80
2023/05/30 11:15:43;;;;;;;1.52;0.80;;;13.70;99.90;;;;;;5040856;28;20427;-76
2023/05/30 11:18:16;;;;;;;1.60;0.75;;;13.60;99.90;;;;;;5045568;28;20409;-81
2023/05/30 11:20:52;;;;;;;1.13;0.70;;;13.60;99.90;;;;;;5040799;28;20424;-82
2023/05/30 11:23:19;;;;;;;2.28;0.80;;;13.80;99.90;;;;;;5039136;28;20421;-84
2023/05/30 11:25:45;;;;;;;1.45;0.40;;;13.60;99.90;;;;;;5044369;28;20503;-84
2023/05/30 11:28:19;;;;;;;2.40;0.82;;;13.90;99.90;;;;;;5030689;28;20450;-82
2023/05/30 11:30:48;;;;;;;1.35;0.57;;;13.70;99.90;;;;;;5039651;28;21061;-82
2023/05/30 11:33:16;;;;;;;2.58;0.90;;;14.00;99.90;;;;;;5041544;28;20509;-78
2023/05/30 11:35:48;;;;;;;2.22;0.80;;;13.90;99.90;;;;;;5027443;28;20422;-81
2023/05/30 11:38:29;;;;;;;1.48;0.77;;;14.30;99.90;;;;;;5026888;28;20407;-79
2023/05/30 11:40:55;;;;;;;1.15;0.60;;;14.30;99.90;;;;;;5027016;28;20415;-77
2023/05/30 11:43:21;;;;;;;1.70;0.50;;;14.10;99.90;;;;;;5043640;28;20950;-81
2023/05/30 11:45:53;;;;;;;2.10;0.60;;;14.20;99.90;;;;;;5039107;28;20426;-79
2023/05/30 11:48:19;;;;;;;2.00;0.60;;;14.10;99.90;;;;;;5046413;28;20474;-81
2023/05/30 11:50:46;;;;;;;1.40;0.80;;;14.50;99.90;;;;;;5028772;28;20494;-80
2023/05/30 11:53:13;;;;;;;1.10;0.88;;;14.60;99.90;;;;;;5044463;28;20416;-79
2023/05/30 11:55:43;;;;;;;1.37;0.83;;;14.50;99.90;;;;;;5045334;28;20417;-82
2023/05/30 11:58:08;;;;;;;2.22;1.27;;;14.40;99.90;;;;;;5046217;28;20840;-80
2023/05/30 12:00:34;;;;;;;2.00;1.07;;;14.40;99.90;;;;;;5037706;28;20516;-81
2023/05/30 12:03:00;;;;;;;1.40;0.90;;;14.10;99.90;;;;;;5033547;28;20403;-81
2023/05/30 12:05:28;;;;;;;1.05;0.75;;;14.20;99.90;;;;;;5026601;28;20801;-82
2023/05/30 12:07:54;;;;;;;1.63;0.95;;;14.20;99.90;;;;;;5026734;28;20387;-82
2023/05/30 12:10:29;;;;;;;2.07;0.90;;;14.50;99.90;;;;;;5026606;28;20805;-82
2023/05/30 12:12:55;;;;;;;2.20;0.80;;;14.60;99.90;;;;;;5023520;28;20431;-82
2023/05/30 12:15:21;;;;;;;1.38;0.80;;;14.50;99.90;;;;;;5024906;28;20407;-80
2023/05/30 12:17:47;;;;;;;2.00;0.80;;;14.40;99.90;;;;;;5039244;28;20745;-83
2023/05/30 12:20:13;;;;;;;0.95;0.60;;;14.60;99.90;;;;;;5044552;28;20457;-83
2023/05/30 12:22:46;;;;;;;0.93;0.80;;;14.60;99.90;;;;;;5045437;28;20405;-78
2023/05/30 12:25:12;;;;;;;2.90;0.80;;;14.40;99.90;;;;;;5044161;28;20455;-83
2023/05/30 12:27:47;;;;;;;1.23;0.60;;;14.70;99.90;;;;;;5044071;28;20416;-82
2023/05/30 12:30:15;;;;;;;1.67;0.87;;;15.00;99.90;;;;;;5046133;28;20475;-82
2023/05/30 12:32:40;;;;;;;0.80;0.55;;;14.70;99.90;;;;;;5044949;28;20424;-82
2023/05/30 12:35:06;;;;;;;1.75;0.90;;;15.10;99.90;;;;;;5046462;28;20476;-83
2023/05/30 12:37:32;;;;;;;1.10;0.95;;;14.90;99.90;;;;;;5045121;28;20467;-81
2023/05/30 12:39:59;;;;;;;2.83;1.10;;;14.90;99.90;;;;;;5025060;28;20474;-84
2023/05/30 12:42:30;;;;;;;4.23;1.37;;;14.70;99.90;;;;;;5027156;28;20904;-77
2023/05/30 12:45:00;;;;;;;1.80;1.17;;;14.90;99.90;;;;;;5044763;28;20433;-82
2023/05/30 12:47:27;;;;;;;2.90;1.13;;;15.10;99.90;;;;;;5026335;28;20421;-77